Terminal Aerodrome Forecast
Issued by NWS

Home | Current Version | Previous Version | Graphics & Text | Print | Product List | Glossary On
Versions: 1 2 3 4 5 6 7 8 9 10 11 12 13 14 15 16 17 18 19 20
000
FTUS43 KMPX 191139
TAFRWF
TAF
KRWF 191139Z 1912/2012 01013KT P6SM VCSH OVC018
     FM191400 02015G24KT 2SM -SN OVC020
     FM192200 02013G20KT P6SM VCSH OVC015
     FM200400 03010KT 3SM -SN OVC015
     FM200700 02009KT 2SM -SN OVC015
     FM201000 35009KT 1SM -SN OVC015=

USA.gov is the U.S. government's official web portal to all federal, state and local government web resources and services.